createdAt,value
2023-01-01T00:01:42.953Z,9.10
2023-01-01T00:04:14.323Z,9.00
2023-01-01T00:06:42.771Z,9.10
2023-01-01T00:09:29.288Z,9.10
2023-01-01T00:11:57.145Z,9.10
2023-01-01T00:14:25.161Z,9.10
2023-01-01T00:16:55.567Z,9.00
2023-01-01T00:19:23.569Z,9.00
2023-01-01T00:21:51.715Z,9.00
2023-01-01T00:24:21.020Z,8.80
2023-01-01T00:26:48.847Z,8.80
2023-01-01T00:29:16.670Z,8.80
2023-01-01T00:31:45.503Z,8.80
2023-01-01T00:34:13.397Z,8.70
2023-01-01T00:36:41.310Z,8.80
2023-01-01T00:39:09.083Z,8.90
2023-01-01T00:41:38.302Z,8.90
2023-01-01T00:44:06.165Z,9.00
2023-01-01T00:46:33.953Z,9.00
2023-01-01T00:49:01.946Z,9.00
2023-01-01T00:51:36.597Z,9.00
2023-01-01T00:54:05.190Z,9.00
2023-01-01T00:56:33.325Z,9.00
2023-01-01T00:59:02.478Z,9.00
2023-01-01T01:01:30.528Z,9.00
2023-01-01T01:03:58.534Z,9.10
2023-01-01T01:06:26.309Z,9.00
2023-01-01T01:08:54.130Z,9.10
2023-01-01T01:11:24.141Z,9.10
2023-01-01T01:13:53.767Z,9.00
2023-01-01T01:16:25.167Z,9.00
2023-01-01T01:18:54.225Z,9.10
2023-01-01T01:21:24.014Z,9.20
2023-01-01T01:23:52.811Z,9.20
2023-01-01T01:26:22.849Z,9.00
2023-01-01T01:28:51.076Z,9.00
2023-01-01T01:31:19.640Z,8.90
2023-01-01T01:33:49.682Z,8.90
2023-01-01T01:36:19.205Z,9.00
2023-01-01T01:38:47.224Z,8.90
2023-01-01T01:41:27.197Z,8.90
2023-01-01T01:43:58.598Z,8.90
2023-01-01T01:46:36.256Z,8.90
2023-01-01T01:49:10.675Z,8.80
2023-01-01T01:51:42.710Z,8.90
2023-01-01T01:54:15.225Z,8.70
2023-01-01T01:56:48.241Z,8.60
2023-01-01T01:59:16.890Z,8.50
2023-01-01T02:01:44.828Z,8.50
2023-01-01T02:04:14.299Z,8.50
2023-01-01T02:06:42.299Z,8.40
2023-01-01T02:09:10.758Z,8.50
2023-01-01T02:11:38.843Z,8.50
2023-01-01T02:14:07.128Z,8.50
2023-01-01T02:16:40.372Z,8.50
2023-01-01T02:19:18.118Z,8.40
2023-01-01T02:22:02.701Z,8.50
2023-01-01T02:24:56.254Z,8.40
2023-01-01T02:27:32.859Z,8.40
2023-01-01T02:30:05.836Z,8.40
2023-01-01T02:32:38.686Z,8.40
2023-01-01T02:35:29.754Z,8.40
2023-01-01T02:38:00.850Z,8.40
2023-01-01T02:40:29.482Z,8.20
2023-01-01T02:42:58.490Z,8.30
2023-01-01T02:45:27.697Z,8.30
2023-01-01T02:47:55.515Z,8.30
2023-01-01T02:50:26.697Z,8.30
2023-01-01T02:53:09.658Z,8.30
2023-01-01T02:55:48.759Z,8.20
2023-01-01T02:58:42.982Z,8.30
2023-01-01T03:01:20.910Z,8.20
2023-01-01T03:04:01.390Z,8.20
2023-01-01T03:06:39.513Z,8.20
2023-01-01T03:09:15.087Z,8.20
2023-01-01T03:11:51.670Z,8.20
2023-01-01T03:14:26.744Z,8.20
2023-01-01T03:17:01.002Z,8.10
2023-01-01T03:19:32.603Z,8.10
2023-01-01T03:22:04.657Z,8.10
2023-01-01T03:24:35.141Z,8.10
2023-01-01T03:27:06.328Z,8.10
2023-01-01T03:29:37.015Z,8.10
2023-01-01T03:32:08.436Z,8.10
2023-01-01T03:34:40.941Z,8.00
2023-01-01T03:37:11.910Z,8.10
2023-01-01T03:39:46.638Z,8.00
2023-01-01T03:42:19.589Z,8.10
2023-01-01T03:44:50.084Z,8.00
2023-01-01T03:47:20.331Z,8.00
2023-01-01T03:49:48.467Z,7.90
2023-01-01T03:52:37.552Z,7.90
2023-01-01T03:55:10.195Z,7.90
2023-01-01T03:57:45.290Z,7.90
2023-01-01T04:00:17.948Z,8.00
2023-01-01T04:02:51.802Z,8.00
2023-01-01T04:05:21.035Z,8.00
2023-01-01T04:10:20.453Z,7.90
2023-01-01T04:12:50.194Z,8.00
2023-01-01T04:15:18.778Z,8.00
2023-01-01T04:17:48.135Z,8.00
2023-01-01T04:20:16.401Z,8.00
2023-01-01T04:22:44.714Z,8.10
2023-01-01T04:25:13.359Z,8.10
2023-01-01T04:27:42.127Z,8.00
2023-01-01T04:30:12.716Z,7.90
2023-01-01T04:32:40.870Z,7.80
2023-01-01T04:35:12.805Z,7.80
2023-01-01T04:37:41.626Z,7.80
2023-01-01T04:40:11.583Z,7.80
2023-01-01T04:42:39.492Z,7.60
2023-01-01T04:45:08.509Z,7.70
2023-01-01T04:47:36.361Z,7.60
2023-01-01T04:50:06.137Z,7.50
2023-01-01T04:52:35.294Z,7.60
2023-01-01T04:55:03.227Z,7.50
2023-01-01T04:57:31.442Z,7.60
2023-01-01T04:59:59.370Z,7.70
2023-01-01T05:02:27.618Z,7.70
2023-01-01T05:04:55.604Z,7.90
2023-01-01T05:07:23.387Z,8.00
2023-01-01T05:09:52.618Z,7.90
2023-01-01T05:12:20.424Z,8.00
2023-01-01T05:14:48.222Z,8.00
2023-01-01T05:17:16.123Z,7.90
2023-01-01T05:19:43.951Z,7.90
2023-01-01T05:22:11.858Z,7.90
2023-01-01T05:24:39.696Z,7.90
2023-01-01T05:27:08.997Z,7.90
2023-01-01T05:29:36.814Z,7.80
2023-01-01T05:32:04.854Z,7.80
2023-01-01T05:36:59.527Z,7.60
2023-01-01T05:39:27.344Z,7.50
2023-01-01T05:41:55.148Z,7.50
2023-01-01T05:44:24.373Z,7.50
2023-01-01T05:46:52.170Z,7.50
2023-01-01T05:49:20.013Z,7.50
2023-01-01T05:51:47.898Z,7.50
2023-01-01T05:56:42.523Z,7.50
2023-01-01T05:59:11.260Z,7.40
2023-01-01T06:01:45.355Z,7.50
2023-01-01T06:04:14.770Z,7.40
2023-01-01T06:06:42.930Z,7.50
2023-01-01T06:09:11.066Z,7.40
2023-01-01T06:11:39.007Z,7.40
2023-01-01T06:14:06.824Z,7.60
2023-01-01T06:16:35.551Z,7.60
2023-01-01T06:19:05.225Z,7.60
2023-01-01T06:21:33.106Z,7.60
2023-01-01T06:24:01.354Z,7.60
2023-01-01T06:26:32.041Z,7.60
2023-01-01T06:29:00.677Z,7.60
2023-01-01T06:31:34.026Z,7.60
2023-01-01T06:34:06.187Z,7.60
2023-01-01T06:36:33.984Z,7.60
2023-01-01T06:39:03.434Z,7.60
2023-01-01T06:41:31.701Z,7.60
2023-01-01T06:44:01.842Z,7.50
2023-01-01T06:46:31.261Z,7.50
2023-01-01T06:49:00.844Z,7.40
2023-01-01T06:51:31.885Z,7.40
2023-01-01T06:54:00.914Z,7.30
2023-01-01T06:56:29.473Z,7.20
2023-01-01T06:58:57.523Z,7.00
2023-01-01T07:01:27.590Z,7.10
2023-01-01T07:03:57.355Z,7.20
2023-01-01T07:06:26.433Z,7.10
2023-01-01T07:08:57.686Z,7.10
2023-01-01T07:11:26.192Z,7.10
2023-01-01T07:13:54.093Z,7.30
2023-01-01T07:16:22.444Z,7.30
2023-01-01T07:18:50.644Z,7.30
2023-01-01T07:21:30.680Z,7.20
2023-01-01T07:24:00.955Z,7.20
2023-01-01T07:26:30.146Z,7.20
2023-01-01T07:29:04.666Z,7.20
2023-01-01T07:31:35.256Z,7.20
2023-01-01T07:34:03.232Z,7.20
2023-01-01T07:36:31.115Z,7.10
2023-01-01T07:39:00.340Z,7.20
2023-01-01T07:41:28.205Z,7.10
2023-01-01T07:43:55.976Z,7.10
2023-01-01T07:46:23.851Z,7.10
2023-01-01T07:48:51.657Z,7.10
2023-01-01T07:51:19.435Z,7.20
2023-01-01T07:53:47.232Z,7.10
2023-01-01T07:56:16.450Z,7.30
2023-01-01T07:58:44.310Z,7.40
2023-01-01T08:01:12.645Z,9.20
2023-01-01T08:03:40.609Z,10.50
2023-01-01T08:06:10.407Z,10.80
2023-01-01T08:08:38.636Z,11.00
2023-01-01T08:11:07.012Z,11.70
2023-01-01T08:13:36.317Z,11.40
2023-01-01T08:16:04.662Z,10.30
2023-01-01T08:18:35.318Z,10.20
2023-01-01T08:21:03.450Z,9.70
2023-01-01T08:23:31.259Z,9.70
2023-01-01T08:26:03.220Z,9.50
2023-01-01T08:28:31.585Z,9.60
2023-01-01T08:31:00.801Z,9.60
2023-01-01T08:33:28.716Z,10.00
2023-01-01T08:35:56.733Z,10.20
2023-01-01T08:38:24.612Z,10.60
2023-01-01T08:40:52.414Z,10.20
2023-01-01T08:43:20.120Z,10.30
2023-01-01T08:45:47.973Z,10.40
2023-01-01T08:48:17.060Z,10.40
2023-01-01T08:50:44.891Z,10.20
2023-01-01T08:53:13.175Z,10.20
2023-01-01T08:55:40.984Z,10.00
2023-01-01T08:58:08.804Z,10.10
2023-01-01T09:00:36.709Z,9.90
2023-01-01T09:03:04.717Z,9.90
2023-01-01T09:05:33.870Z,9.80
2023-01-01T09:08:01.746Z,9.80
2023-01-01T09:10:29.519Z,9.90
2023-01-01T09:12:57.337Z,9.80
2023-01-01T09:15:25.188Z,9.90
2023-01-01T09:17:53.081Z,9.70
2023-01-01T09:20:20.874Z,9.80
2023-01-01T09:22:50.012Z,9.70
2023-01-01T09:25:17.931Z,9.60
2023-01-01T09:27:45.837Z,9.70
2023-01-01T09:30:14.867Z,9.40
2023-01-01T09:32:42.603Z,9.40
2023-01-01T09:35:11.114Z,9.60
2023-01-01T09:37:38.959Z,9.90
2023-01-01T09:40:09.844Z,9.90
2023-01-01T09:42:43.619Z,10.40
2023-01-01T09:45:22.884Z,10.40
2023-01-01T09:47:54.193Z,10.50
2023-01-01T09:50:25.753Z,11.00
2023-01-01T09:52:57.311Z,11.50
2023-01-01T09:55:31.405Z,12.00
2023-01-01T09:57:59.697Z,12.50
2023-01-01T10:00:29.716Z,12.70
2023-01-01T10:03:14.007Z,11.60
2023-01-01T10:05:52.913Z,11.10
2023-01-01T10:08:39.578Z,11.40
2023-01-01T10:11:16.703Z,11.40
2023-01-01T10:13:45.972Z,11.80
2023-01-01T10:16:24.410Z,12.00
2023-01-01T10:18:55.826Z,11.30
2023-01-01T10:21:27.313Z,11.40
2023-01-01T10:23:58.805Z,11.20
2023-01-01T10:26:30.567Z,11.20
2023-01-01T10:29:03.188Z,11.40
2023-01-01T10:31:35.068Z,11.30
2023-01-01T10:34:10.013Z,11.60
2023-01-01T10:36:37.925Z,11.80
2023-01-01T10:39:06.038Z,12.00
2023-01-01T10:41:35.222Z,11.70
2023-01-01T10:44:03.778Z,12.40
2023-01-01T10:46:32.488Z,12.20
2023-01-01T10:49:10.954Z,12.50
2023-01-01T10:51:43.910Z,12.50
2023-01-01T10:54:32.976Z,12.70
2023-01-01T10:57:15.762Z,12.90
2023-01-01T10:59:49.783Z,13.20
2023-01-01T11:02:22.252Z,12.80
2023-01-01T11:04:52.023Z,12.80
2023-01-01T11:07:26.380Z,13.00
2023-01-01T11:10:03.769Z,13.10
2023-01-01T11:15:35.361Z,13.10
2023-01-01T11:18:07.860Z,13.20
2023-01-01T11:20:35.729Z,13.30
2023-01-01T11:23:20.802Z,13.20
2023-01-01T11:25:59.824Z,13.40
2023-01-01T11:28:31.569Z,13.50
2023-01-01T11:31:02.754Z,13.40
2023-01-01T11:33:33.234Z,13.30
2023-01-01T11:36:01.287Z,13.30
2023-01-01T11:38:30.448Z,13.30
2023-01-01T11:41:04.288Z,13.40
2023-01-01T11:43:40.118Z,13.30
2023-01-01T11:46:11.295Z,13.20
2023-01-01T11:48:43.255Z,13.40
2023-01-01T11:51:28.335Z,13.40
2023-01-01T11:54:10.900Z,13.30
2023-01-01T11:56:39.718Z,13.70
2023-01-01T11:59:16.074Z,13.90
2023-01-01T12:01:47.757Z,14.00
2023-01-01T12:04:23.569Z,13.80
2023-01-01T12:06:54.205Z,13.90
2023-01-01T12:09:26.742Z,14.30
2023-01-01T12:12:01.235Z,14.20
2023-01-01T12:14:38.081Z,14.40
2023-01-01T12:17:10.710Z,14.30
2023-01-01T12:19:44.542Z,14.40
2023-01-01T12:22:17.332Z,14.30
2023-01-01T12:24:46.735Z,14.20
2023-01-01T12:27:19.469Z,14.40
2023-01-01T12:30:03.808Z,14.60
2023-01-01T12:32:44.802Z,14.50
2023-01-01T12:35:26.432Z,14.40
2023-01-01T12:38:02.846Z,14.60
2023-01-01T12:40:40.699Z,14.40
2023-01-01T12:43:12.301Z,14.20
2023-01-01T12:46:13.550Z,14.10
2023-01-01T12:49:23.215Z,14.00
2023-01-01T12:52:03.617Z,13.70
2023-01-01T12:55:18.255Z,13.90
2023-01-01T12:57:52.544Z,14.10
2023-01-01T13:00:21.775Z,14.20
2023-01-01T13:02:53.442Z,14.20
2023-01-01T13:05:25.495Z,14.00
2023-01-01T13:08:01.180Z,14.30
2023-01-01T13:10:35.172Z,14.40
2023-01-01T13:13:04.152Z,14.40
2023-01-01T13:15:48.362Z,14.40
2023-01-01T13:18:25.560Z,14.40
2023-01-01T13:20:59.618Z,14.90
2023-01-01T13:23:51.580Z,14.90
2023-01-01T13:26:36.397Z,14.90
2023-01-01T13:29:26.488Z,14.70
2023-01-01T13:32:10.971Z,14.90
2023-01-01T13:35:03.435Z,14.10
2023-01-01T13:37:44.349Z,13.90
2023-01-01T13:40:49.552Z,13.90
2023-01-01T13:43:29.177Z,14.60
2023-01-01T13:46:11.544Z,14.80
2023-01-01T13:49:09.202Z,14.90
2023-01-01T13:52:08.861Z,14.90
2023-01-01T13:55:05.038Z,14.80
2023-01-01T13:57:59.610Z,14.50
2023-01-01T14:00:35.705Z,14.50
2023-01-01T14:03:08.984Z,14.50
2023-01-01T14:05:42.231Z,14.70
2023-01-01T14:08:28.950Z,14.60
2023-01-01T14:11:02.812Z,14.50
2023-01-01T14:13:40.312Z,14.60
2023-01-01T14:16:13.507Z,14.50
2023-01-01T14:18:44.420Z,14.20
2023-01-01T14:21:14.646Z,14.30
2023-01-01T14:23:45.064Z,14.50
2023-01-01T14:26:15.471Z,14.40
2023-01-01T14:28:44.986Z,14.00
2023-01-01T14:31:15.761Z,14.00
2023-01-01T14:33:44.033Z,13.90
2023-01-01T14:36:22.652Z,13.80
2023-01-01T14:38:52.224Z,13.40
2023-01-01T14:41:25.194Z,13.70
2023-01-01T14:43:57.022Z,13.30
2023-01-01T14:46:27.337Z,13.10
2023-01-01T14:48:58.554Z,13.10
2023-01-01T14:51:27.895Z,13.30
2023-01-01T14:53:59.538Z,13.30
2023-01-01T14:56:54.197Z,13.10
2023-01-01T14:59:27.588Z,13.00
2023-01-01T15:02:03.310Z,12.80
2023-01-01T15:04:31.536Z,12.70
2023-01-01T15:07:00.941Z,12.50
2023-01-01T15:09:29.513Z,12.40
2023-01-01T15:11:59.059Z,12.20
2023-01-01T15:14:33.912Z,12.10
2023-01-01T15:17:03.351Z,12.00
2023-01-01T15:19:31.694Z,12.00
2023-01-01T15:22:00.364Z,11.90
2023-01-01T15:24:30.305Z,11.90
2023-01-01T15:26:59.573Z,11.80
2023-01-01T15:29:31.439Z,11.70
2023-01-01T15:32:01.807Z,11.50
2023-01-01T15:34:32.397Z,11.50
2023-01-01T15:37:10.237Z,12.10
2023-01-01T15:39:47.584Z,12.40
2023-01-01T15:42:35.348Z,12.10
2023-01-01T15:45:21.695Z,12.00
2023-01-01T15:47:50.287Z,11.60
2023-01-01T15:50:23.981Z,11.40
2023-01-01T15:52:56.092Z,11.30
2023-01-01T15:55:27.383Z,11.20
2023-01-01T15:57:57.827Z,11.10
2023-01-01T16:00:30.233Z,11.00
2023-01-01T16:03:01.782Z,11.00
2023-01-01T16:05:29.993Z,11.00
2023-01-01T16:08:00.316Z,11.00
2023-01-01T16:10:28.282Z,11.00
2023-01-01T16:12:56.180Z,10.90
2023-01-01T16:15:24.151Z,11.00
2023-01-01T16:17:55.135Z,11.00
2023-01-01T16:20:23.451Z,11.10
2023-01-01T16:22:51.380Z,11.10
2023-01-01T16:25:21.685Z,11.00
2023-01-01T16:27:49.662Z,11.10
2023-01-01T16:30:17.702Z,11.10
2023-01-01T16:32:48.969Z,11.40
2023-01-01T16:35:18.475Z,11.40
2023-01-01T16:37:46.269Z,11.50
2023-01-01T16:40:14.443Z,11.30
2023-01-01T16:42:42.179Z,11.30
2023-01-01T16:45:17.980Z,11.30
2023-01-01T16:47:45.846Z,11.20
2023-01-01T16:50:13.880Z,11.10
2023-01-01T16:52:45.122Z,11.10
2023-01-01T16:55:14.264Z,11.00
2023-01-01T16:57:43.225Z,11.20
2023-01-01T17:00:12.382Z,11.10
2023-01-01T17:02:40.396Z,11.00
2023-01-01T17:05:09.112Z,11.00
2023-01-01T17:07:36.926Z,11.00
2023-01-01T17:10:07.146Z,10.90
2023-01-01T17:12:35.054Z,11.00
2023-01-01T17:15:02.844Z,11.00
2023-01-01T17:17:30.757Z,10.80
2023-01-01T17:19:58.540Z,10.90
2023-01-01T17:22:30.689Z,11.00
2023-01-01T17:25:01.756Z,10.90
2023-01-01T17:27:30.878Z,10.80
2023-01-01T17:29:58.775Z,10.80
2023-01-01T17:32:26.674Z,10.70
2023-01-01T17:34:57.188Z,10.60
2023-01-01T17:37:25.184Z,10.60
2023-01-01T17:39:53.062Z,10.60
2023-01-01T17:42:20.881Z,10.50
2023-01-01T17:44:50.133Z,10.50
2023-01-01T17:47:17.947Z,10.50
2023-01-01T17:49:45.720Z,10.50
2023-01-01T17:52:13.444Z,10.50
2023-01-01T17:54:41.243Z,10.50
2023-01-01T17:57:09.079Z,10.30
2023-01-01T17:59:36.812Z,10.30
2023-01-01T18:02:08.879Z,10.30
2023-01-01T18:04:37.236Z,10.30
2023-01-01T18:07:06.573Z,10.20
2023-01-01T18:09:36.702Z,10.30
2023-01-01T18:12:05.293Z,10.30
2023-01-01T18:14:33.104Z,10.30
2023-01-01T18:17:00.824Z,10.00
2023-01-01T18:19:30.587Z,10.10
2023-01-01T18:21:58.350Z,10.00
2023-01-01T18:24:26.168Z,10.00
2023-01-01T18:26:54.044Z,10.00
2023-01-01T18:29:21.971Z,9.80
2023-01-01T18:31:51.370Z,9.80
2023-01-01T18:34:19.201Z,9.70
2023-01-01T18:36:48.440Z,9.70
2023-01-01T18:39:21.116Z,9.70
2023-01-01T18:42:29.479Z,9.80
2023-01-01T18:45:04.914Z,9.80
2023-01-01T18:47:33.072Z,9.80
2023-01-01T18:50:09.162Z,9.80
2023-01-01T18:52:38.302Z,9.90
2023-01-01T18:55:14.423Z,10.00
2023-01-01T18:57:42.654Z,10.00
2023-01-01T19:00:22.311Z,10.10
2023-01-01T19:02:56.551Z,10.00
2023-01-01T19:05:27.285Z,10.00
2023-01-01T19:08:03.514Z,9.90
2023-01-01T19:10:36.719Z,10.00
2023-01-01T19:13:16.668Z,9.90
2023-01-01T19:15:49.900Z,9.90
2023-01-01T19:18:20.206Z,10.20
2023-01-01T19:20:50.190Z,10.20
2023-01-01T19:23:23.237Z,10.10
2023-01-01T19:25:51.967Z,10.30
2023-01-01T19:28:36.815Z,10.10
2023-01-01T19:31:06.304Z,10.10
2023-01-01T19:33:34.158Z,10.10
2023-01-01T19:36:01.977Z,10.00
2023-01-01T19:38:31.180Z,10.00
2023-01-01T19:40:58.943Z,10.00
2023-01-01T19:43:26.763Z,10.10
2023-01-01T19:45:54.639Z,10.00
2023-01-01T19:48:22.446Z,9.90
2023-01-01T19:50:51.032Z,9.80
2023-01-01T19:53:19.064Z,9.70
2023-01-01T19:55:48.245Z,9.80
2023-01-01T19:58:16.136Z,10.00
2023-01-01T20:00:44.058Z,9.90
2023-01-01T20:05:59.615Z,9.90
2023-01-01T20:08:28.464Z,9.70
2023-01-01T20:10:57.617Z,9.70
2023-01-01T20:13:25.489Z,9.60
2023-01-01T20:15:53.526Z,9.70
2023-01-01T20:18:21.386Z,9.70
2023-01-01T20:21:06.566Z,9.80
2023-01-01T20:23:34.389Z,9.70
2023-01-01T20:26:04.461Z,9.70
2023-01-01T20:28:49.765Z,9.70
2023-01-01T20:31:17.718Z,9.80
2023-01-01T20:33:45.685Z,9.80
2023-01-01T20:36:30.828Z,9.60
2023-01-01T20:38:58.765Z,9.50
2023-01-01T20:41:27.914Z,9.50
2023-01-01T20:43:58.833Z,9.50
2023-01-01T20:46:27.254Z,9.40
2023-01-01T20:48:54.995Z,9.30
2023-01-01T20:51:22.888Z,9.10
2023-01-01T20:53:53.204Z,9.10
2023-01-01T20:56:21.107Z,9.10
2023-01-01T20:58:56.090Z,9.00
2023-01-01T21:01:27.088Z,9.00
2023-01-01T21:03:55.138Z,9.00
2023-01-01T21:06:24.646Z,9.00
2023-01-01T21:08:52.856Z,9.00
2023-01-01T21:11:20.823Z,9.00
2023-01-01T21:13:50.012Z,9.00
2023-01-01T21:16:19.783Z,8.90
2023-01-01T21:18:48.472Z,9.00
2023-01-01T21:21:20.019Z,9.00
2023-01-01T21:23:48.673Z,8.90
2023-01-01T21:26:19.108Z,8.80
2023-01-01T21:28:47.816Z,8.80
2023-01-01T21:31:17.245Z,8.90
2023-01-01T21:33:46.311Z,8.90
2023-01-01T21:36:18.452Z,8.80
2023-01-01T21:38:47.969Z,8.80
2023-01-01T21:41:22.289Z,8.80
2023-01-01T21:43:51.920Z,8.70
2023-01-01T21:46:31.498Z,8.70
2023-01-01T21:49:02.071Z,8.60
2023-01-01T21:51:33.005Z,8.50
2023-01-01T21:54:18.674Z,8.50
2023-01-01T21:56:53.834Z,8.50
2023-01-01T21:59:32.955Z,8.10
2023-01-01T22:02:38.467Z,8.40
2023-01-01T22:05:30.512Z,8.20
2023-01-01T22:07:59.229Z,8.30
2023-01-01T22:10:32.604Z,8.30
2023-01-01T22:13:01.625Z,8.40
2023-01-01T22:15:38.919Z,8.00
2023-01-01T22:18:23.161Z,8.20
2023-01-01T22:20:51.484Z,8.30
2023-01-01T22:23:41.461Z,8.30
2023-01-01T22:26:20.059Z,8.20
2023-01-01T22:28:50.201Z,8.20
2023-01-01T22:31:20.326Z,8.20
2023-01-01T22:33:50.772Z,8.10
2023-01-01T22:36:25.313Z,7.90
2023-01-01T22:38:55.105Z,8.10
2023-01-01T22:41:22.978Z,8.10
2023-01-01T22:43:52.302Z,8.10
2023-01-01T22:46:27.225Z,8.10
2023-01-01T22:48:59.274Z,8.10
2023-01-01T22:51:32.996Z,8.20
2023-01-01T22:54:00.751Z,8.10
2023-01-01T22:56:28.593Z,8.00
2023-01-01T23:01:38.491Z,7.90
2023-01-01T23:04:07.692Z,7.90
2023-01-01T23:06:35.572Z,7.90
2023-01-01T23:09:03.553Z,7.90
2023-01-01T23:11:31.375Z,7.90
2023-01-01T23:14:16.503Z,7.90
2023-01-01T23:16:44.324Z,7.80
2023-01-01T23:19:13.507Z,7.80
2023-01-01T23:21:42.923Z,7.70
2023-01-01T23:24:14.145Z,7.70
2023-01-01T23:26:42.959Z,7.70
2023-01-01T23:29:12.580Z,7.70
2023-01-01T23:31:42.324Z,7.70
2023-01-01T23:34:10.582Z,7.70
2023-01-01T23:36:40.486Z,7.70
2023-01-01T23:39:08.415Z,7.70
2023-01-01T23:41:36.426Z,7.50
2023-01-01T23:44:04.271Z,7.60
2023-01-01T23:46:34.359Z,7.50
2023-01-01T23:49:04.443Z,7.50
2023-01-01T23:51:32.456Z,7.50
2023-01-01T23:54:01.627Z,7.50
2023-01-01T23:56:29.566Z,7.50
2023-01-01T23:59:00.019Z,7.60
